Time;durP1;ratioP1;P1;durP2;ratioP2;P2;SDS_P1;SDS_P2;PMS_P1;PMS_P2;Temp;Humidity;BMP_temperature;BMP_pressure;BME280_temperature;BME280_humidity;BME280_pressure;Samples;Min_cycle;Max_cycle;Signal;HPM_P1;HPM_P2
2023/12/13 00:01:17;;;;;;;64.93;49.47;;;;;;;;;;10025208;28;20096;-76
2023/12/13 00:06:09;;;;;;;67.07;50.72;;;;;;;;;;10025217;28;20038;-76
2023/12/13 00:11:01;;;;;;;69.25;51.78;;;;;;;;;;10025277;28;20061;-77
2023/12/13 00:15:53;;;;;;;68.18;54.85;;;;;;;;;;10024828;28;20064;-76
2023/12/13 00:20:44;;;;;;;71.18;52.45;;;;;;;;;;10025250;28;20176;-77
2023/12/13 00:25:36;;;;;;;63.03;50.00;;;;;;;;;;10028905;28;20045;-77
2023/12/13 00:30:28;;;;;;;76.07;51.63;;;;;;;;;;10032795;28;20046;-77
2023/12/13 00:35:20;;;;;;;80.68;55.80;;;;;;;;;;10032410;28;20103;-76
2023/12/13 00:40:13;;;;;;;76.78;49.42;;;;;;;;;;10031958;28;20054;-75
2023/12/13 00:45:05;;;;;;;76.95;55.45;;;;;;;;;;10032056;28;20045;-77
2023/12/13 00:49:57;;;;;;;72.57;52.45;;;;;;;;;;10032537;28;20503;-77
2023/12/13 00:54:49;;;;;;;85.90;59.60;;;;;;;;;;10032261;28;20053;-76
2023/12/13 00:59:41;;;;;;;83.57;53.22;;;;;;;;;;10031746;28;20046;-77
2023/12/13 01:04:38;;;;;;;83.38;55.85;;;;;;;;;;10031680;28;20042;-76
2023/12/13 01:09:30;;;;;;;92.97;56.35;;;;;;;;;;10030845;28;20053;-76
2023/12/13 01:14:22;;;;;;;89.25;59.50;;;;;;;;;;10030788;28;20046;-76
2023/12/13 01:19:14;;;;;;;83.78;56.60;;;;;;;;;;10030568;28;20108;-76
2023/12/13 01:24:06;;;;;;;89.05;58.75;;;;;;;;;;10030587;28;20100;-77
2023/12/13 01:28:58;;;;;;;91.97;57.50;;;;;;;;;;10030726;28;20385;-77
2023/12/13 01:33:50;;;;;;;90.38;60.20;;;;;;;;;;10029876;28;20042;-76
2023/12/13 01:38:42;;;;;;;95.95;57.42;;;;;;;;;;10028885;28;20080;-76
2023/12/13 01:43:34;;;;;;;75.38;54.00;;;;;;;;;;10029062;28;20096;-77
2023/12/13 01:48:26;;;;;;;95.55;53.55;;;;;;;;;;10030077;28;20334;-76
2023/12/13 01:53:19;;;;;;;86.90;54.50;;;;;;;;;;10028764;28;20088;-77
2023/12/13 01:58:11;;;;;;;84.20;55.65;;;;;;;;;;10029778;28;20108;-77
2023/12/13 02:03:03;;;;;;;87.18;57.13;;;;;;;;;;10028756;28;20148;-77
2023/12/13 02:07:55;;;;;;;97.15;58.60;;;;;;;;;;10027735;28;20067;-77
2023/12/13 02:12:47;;;;;;;97.55;58.90;;;;;;;;;;10028019;28;20374;-76
2023/12/13 02:17:52;;;;;;;100.82;55.97;;;;;;;;;;10028051;28;20054;-77
2023/12/13 02:22:44;;;;;;;93.18;59.33;;;;;;;;;;10028700;28;20047;-77
2023/12/13 02:27:36;;;;;;;95.75;57.47;;;;;;;;;;10028347;28;20072;-76
2023/12/13 02:32:28;;;;;;;83.20;56.47;;;;;;;;;;10027979;28;20056;-76
2023/12/13 02:37:20;;;;;;;85.45;56.10;;;;;;;;;;10027847;28;20433;-75
2023/12/13 02:42:12;;;;;;;86.18;55.67;;;;;;;;;;10026080;28;20065;-76
2023/12/13 02:47:04;;;;;;;90.88;60.03;;;;;;;;;;10026668;28;20157;-76
2023/12/13 02:51:56;;;;;;;96.38;56.50;;;;;;;;;;10027933;28;20042;-76
2023/12/13 02:56:48;;;;;;;103.85;62.42;;;;;;;;;;10027547;28;20482;-76
2023/12/13 03:01:40;;;;;;;99.68;60.53;;;;;;;;;;10026761;28;20049;-76
2023/12/13 03:06:31;;;;;;;91.22;57.03;;;;;;;;;;10027040;28;20048;-76
2023/12/13 03:11:24;;;;;;;102.07;58.05;;;;;;;;;;10027022;28;20054;-76
2023/12/13 03:16:16;;;;;;;98.70;58.55;;;;;;;;;;10026634;28;20512;-76
2023/12/13 03:21:08;;;;;;;91.30;60.05;;;;;;;;;;10026383;28;20042;-77
2023/12/13 03:26:00;;;;;;;89.25;58.03;;;;;;;;;;10026615;28;20480;-76
2023/12/13 03:30:52;;;;;;;91.30;55.33;;;;;;;;;;10025428;28;20123;-77
2023/12/13 03:35:44;;;;;;;103.90;62.88;;;;;;;;;;10026122;28;20472;-77
2023/12/13 03:40:36;;;;;;;120.95;61.75;;;;;;;;;;10025203;28;20136;-75
2023/12/13 03:45:28;;;;;;;105.22;56.67;;;;;;;;;;10025736;28;20077;-74
2023/12/13 03:50:20;;;;;;;108.82;56.70;;;;;;;;;;10025501;28;20042;-74
2023/12/13 03:55:12;;;;;;;105.60;57.45;;;;;;;;;;10025013;28;20045;-74
2023/12/13 04:00:06;;;;;;;102.00;59.17;;;;;;;;;;10024827;28;20077;-75
2023/12/13 04:05:03;;;;;;;102.63;62.25;;;;;;;;;;10025802;28;20333;-74
2023/12/13 04:09:55;;;;;;;102.53;56.15;;;;;;;;;;10025268;28;20045;-75
2023/12/13 04:14:47;;;;;;;114.00;57.80;;;;;;;;;;10025069;28;20050;-74
2023/12/13 04:19:39;;;;;;;110.28;58.40;;;;;;;;;;10024496;28;20081;-75
2023/12/13 04:24:31;;;;;;;90.28;54.35;;;;;;;;;;10024415;28;20053;-74
2023/12/13 04:29:23;;;;;;;113.05;62.00;;;;;;;;;;10023739;28;20519;-75
2023/12/13 04:34:15;;;;;;;106.95;59.20;;;;;;;;;;10024876;28;20054;-74
2023/12/13 04:39:07;;;;;;;103.10;58.92;;;;;;;;;;10022322;28;20051;-77
2023/12/13 04:43:59;;;;;;;106.07;58.15;;;;;;;;;;10023922;28;20044;-74
2023/12/13 04:48:51;;;;;;;105.32;55.22;;;;;;;;;;10024347;28;20457;-75
2023/12/13 04:53:43;;;;;;;114.10;56.17;;;;;;;;;;10024511;28;20049;-74
2023/12/13 04:58:35;;;;;;;116.53;51.55;;;;;;;;;;10023509;28;20045;-74
2023/12/13 05:03:29;;;;;;;108.22;53.30;;;;;;;;;;10024175;28;20054;-74
2023/12/13 05:08:21;;;;;;;97.32;54.17;;;;;;;;;;10023250;28;20045;-75
2023/12/13 05:13:13;;;;;;;105.90;52.10;;;;;;;;;;10028904;28;20488;-74
2023/12/13 05:18:05;;;;;;;102.63;52.55;;;;;;;;;;10030957;28;20128;-77
2023/12/13 05:22:56;;;;;;;115.28;53.42;;;;;;;;;;10030632;28;20120;-76
2023/12/13 05:27:49;;;;;;;117.15;52.35;;;;;;;;;;10030495;28;20496;-77
2023/12/13 05:32:40;;;;;;;123.72;51.90;;;;;;;;;;10029851;28;20103;-77
2023/12/13 05:37:32;;;;;;;124.10;51.85;;;;;;;;;;10030252;28;20520;-75
2023/12/13 05:42:25;;;;;;;113.47;53.40;;;;;;;;;;10030122;28;20453;-75
2023/12/13 05:47:17;;;;;;;121.90;55.47;;;;;;;;;;10029220;28;20073;-74
2023/12/13 05:52:09;;;;;;;112.97;56.42;;;;;;;;;;10029718;28;20046;-76
2023/12/13 05:57:01;;;;;;;103.13;53.50;;;;;;;;;;10029249;28;20200;-75
2023/12/13 06:01:53;;;;;;;104.57;51.60;;;;;;;;;;10028551;28;20084;-75
2023/12/13 06:06:45;;;;;;;107.43;51.28;;;;;;;;;;10029035;28;20516;-75
2023/12/13 06:11:38;;;;;;;97.97;52.15;;;;;;;;;;10023743;28;20089;-75
2023/12/13 06:16:30;;;;;;;81.35;48.92;;;;;;;;;;10028485;28;20498;-75
2023/12/13 06:21:22;;;;;;;89.07;51.03;;;;;;;;;;10026993;28;20111;-74
2023/12/13 06:26:13;;;;;;;98.55;48.55;;;;;;;;;;10028890;28;20535;-75
2023/12/13 06:31:05;;;;;;;98.75;49.97;;;;;;;;;;10028148;28;20045;-74
2023/12/13 06:35:57;;;;;;;109.55;53.03;;;;;;;;;;10028285;28;20060;-75
2023/12/13 06:40:50;;;;;;;107.43;49.65;;;;;;;;;;10028007;28;20477;-75
2023/12/13 06:45:42;;;;;;;100.70;51.47;;;;;;;;;;10027702;28;20042;-75
2023/12/13 06:50:34;;;;;;;98.57;52.63;;;;;;;;;;10028176;28;20046;-75
2023/12/13 06:55:26;;;;;;;88.82;47.85;;;;;;;;;;10027817;28;20054;-74
2023/12/13 07:00:23;;;;;;;116.35;51.33;;;;;;;;;;10026927;28;20141;-75
2023/12/13 07:05:15;;;;;;;117.55;65.40;;;;;;;;;;10027044;28;20119;-75
2023/12/13 07:10:07;;;;;;;95.90;51.72;;;;;;;;;;10026632;28;20052;-75
2023/12/13 07:14:59;;;;;;;114.75;69.40;;;;;;;;;;10026396;28;20472;-75
2023/12/13 07:19:51;;;;;;;79.07;44.35;;;;;;;;;;10026287;28;20073;-75
2023/12/13 07:24:43;;;;;;;85.78;49.47;;;;;;;;;;10025783;28;20461;-75
2023/12/13 07:29:35;;;;;;;110.43;47.22;;;;;;;;;;10026732;28;20046;-75
2023/12/13 07:34:26;;;;;;;96.32;51.33;;;;;;;;;;10026049;28;20046;-76
2023/12/13 07:39:18;;;;;;;94.05;52.55;;;;;;;;;;10025214;28;20054;-75
2023/12/13 07:44:10;;;;;;;99.20;50.58;;;;;;;;;;10025701;28;20464;-75
2023/12/13 07:49:05;;;;;;;94.30;49.22;;;;;;;;;;10026203;28;20042;-75
2023/12/13 07:53:59;;;;;;;93.72;49.40;;;;;;;;;;10026019;28;20102;-74
2023/12/13 07:58:51;;;;;;;89.68;49.35;;;;;;;;;;10025338;28;20045;-75
2023/12/13 08:03:46;;;;;;;91.07;50.33;;;;;;;;;;10024876;28;20073;-75
2023/12/13 08:08:39;;;;;;;102.10;51.70;;;;;;;;;;10024849;28;20046;-75
2023/12/13 08:13:31;;;;;;;117.95;64.35;;;;;;;;;;10024718;28;20428;-75
2023/12/13 08:18:22;;;;;;;97.88;49.70;;;;;;;;;;10025196;28;20132;-75
2023/12/13 08:23:14;;;;;;;105.32;54.50;;;;;;;;;;10024665;28;20042;-74
2023/12/13 08:28:06;;;;;;;82.15;46.08;;;;;;;;;;10024941;28;20046;-74
2023/12/13 08:32:58;;;;;;;78.05;46.75;;;;;;;;;;10024368;28;20065;-73
2023/12/13 08:37:50;;;;;;;86.20;51.40;;;;;;;;;;10024117;28;20099;-74
2023/12/13 08:42:42;;;;;;;96.07;54.70;;;;;;;;;;10024191;28;20045;-73
2023/12/13 08:47:37;;;;;;;79.57;46.20;;;;;;;;;;10029591;28;20049;-74
2023/12/13 08:52:29;;;;;;;81.40;50.10;;;;;;;;;;10032913;28;20069;-74
2023/12/13 08:57:21;;;;;;;91.07;48.65;;;;;;;;;;10031676;28;20358;-74
2023/12/13 09:02:13;;;;;;;83.90;49.55;;;;;;;;;;10031638;28;20044;-74
2023/12/13 09:07:06;;;;;;;79.53;51.20;;;;;;;;;;10031523;28;20046;-74
2023/12/13 09:12:00;;;;;;;80.72;51.03;;;;;;;;;;10031448;28;20408;-75
2023/12/13 09:16:53;;;;;;;80.60;49.78;;;;;;;;;;10030938;28;20053;-74
2023/12/13 09:21:44;;;;;;;71.57;50.30;;;;;;;;;;10030271;28;20066;-75
2023/12/13 09:26:37;;;;;;;78.55;51.70;;;;;;;;;;10031020;28;20049;-75
2023/12/13 09:31:29;;;;;;;79.22;50.08;;;;;;;;;;10030970;28;20054;-75
2023/12/13 09:36:21;;;;;;;62.17;42.80;;;;;;;;;;10031351;28;20121;-75
2023/12/13 09:41:31;;;;;;;71.18;49.00;;;;;;;;;;10029636;28;20088;-75
2023/12/13 09:46:25;;;;;;;70.78;49.88;;;;;;;;;;10030117;28;20042;-75
2023/12/13 09:51:21;;;;;;;63.78;44.85;;;;;;;;;;10028625;28;20041;-75
2023/12/13 09:56:13;;;;;;;61.45;42.15;;;;;;;;;;10029215;28;20358;-75
2023/12/13 10:01:12;;;;;;;62.55;45.20;;;;;;;;;;10029351;28;20046;-75
2023/12/13 10:06:07;;;;;;;55.50;38.08;;;;;;;;;;10027437;28;20041;-74
2023/12/13 10:10:59;;;;;;;68.18;43.70;;;;;;;;;;10029221;28;20385;-75
2023/12/13 10:15:51;;;;;;;65.00;44.25;;;;;;;;;;10028880;28;20092;-75
2023/12/13 10:20:44;;;;;;;62.00;39.50;;;;;;;;;;10028701;28;20134;-75
2023/12/13 10:25:37;;;;;;;53.17;38.05;;;;;;;;;;10028841;28;20133;-74
2023/12/13 10:30:29;;;;;;;50.42;36.40;;;;;;;;;;10028281;28;20434;-75
2023/12/13 10:35:22;;;;;;;51.75;36.83;;;;;;;;;;10027642;28;20053;-75
2023/12/13 10:40:17;;;;;;;50.67;38.15;;;;;;;;;;10027719;28;20061;-75
2023/12/13 10:45:10;;;;;;;47.97;36.72;;;;;;;;;;10026785;28;20049;-75
2023/12/13 10:50:03;;;;;;;45.63;34.35;;;;;;;;;;10026315;28;20054;-75
2023/12/13 10:54:55;;;;;;;47.10;34.85;;;;;;;;;;10026520;28;20704;-75
2023/12/13 10:59:48;;;;;;;46.65;36.13;;;;;;;;;;10026268;28;20110;-74
2023/12/13 11:04:42;;;;;;;43.33;33.65;;;;;;;;;;10026300;28;20495;-74
2023/12/13 11:09:35;;;;;;;49.13;39.47;;;;;;;;;;10024956;28;20053;-75
2023/12/13 11:14:27;;;;;;;45.08;34.65;;;;;;;;;;10026909;28;20476;-75
2023/12/13 11:19:25;;;;;;;42.70;33.75;;;;;;;;;;10026675;28;20053;-75
2023/12/13 11:24:25;;;;;;;48.90;35.00;;;;;;;;;;10026822;28;20041;-74
2023/12/13 11:29:26;;;;;;;36.70;28.70;;;;;;;;;;10026131;28;20392;-75
2023/12/13 11:34:30;;;;;;;57.08;44.40;;;;;;;;;;10026317;28;20046;-74
2023/12/13 11:39:22;;;;;;;45.13;38.22;;;;;;;;;;10025425;28;20128;-74
2023/12/13 11:44:14;;;;;;;26.90;24.08;;;;;;;;;;10024430;28;20052;-75
2023/12/13 11:49:06;;;;;;;21.00;19.02;;;;;;;;;;10025950;28;20076;-74
2023/12/13 11:53:58;;;;;;;18.85;16.98;;;;;;;;;;10025064;28;20049;-75
2023/12/13 11:58:50;;;;;;;21.88;19.65;;;;;;;;;;10024615;28;20046;-75
2023/12/13 12:03:42;;;;;;;24.38;21.88;;;;;;;;;;10025290;28;20045;-75
2023/12/13 12:08:34;;;;;;;24.15;21.55;;;;;;;;;;10025704;28;20049;-74
2023/12/13 12:13:26;;;;;;;23.63;20.35;;;;;;;;;;10024811;28;20053;-74
2023/12/13 12:18:18;;;;;;;32.40;26.73;;;;;;;;;;10023708;28;20057;-75
2023/12/13 12:23:10;;;;;;;36.15;27.27;;;;;;;;;;10033296;28;20053;-75
2023/12/13 12:28:05;;;;;;;40.78;30.95;;;;;;;;;;10033037;28;20054;-75
2023/12/13 12:32:57;;;;;;;46.95;31.25;;;;;;;;;;10032369;28;20469;-74
2023/12/13 12:37:49;;;;;;;45.28;31.95;;;;;;;;;;10032241;28;20054;-75
2023/12/13 12:42:42;;;;;;;52.42;33.33;;;;;;;;;;10031880;28;20100;-74
2023/12/13 12:47:34;;;;;;;48.80;32.60;;;;;;;;;;10031263;28;20046;-75
2023/12/13 12:52:26;;;;;;;45.97;33.83;;;;;;;;;;10032178;28;20050;-74
2023/12/13 12:57:18;;;;;;;53.03;39.00;;;;;;;;;;10031977;28;20050;-75
2023/12/13 13:02:10;;;;;;;47.97;34.53;;;;;;;;;;10031728;28;20384;-75
2023/12/13 13:07:05;;;;;;;63.30;43.00;;;;;;;;;;10031977;28;20457;-74
2023/12/13 13:11:57;;;;;;;62.25;44.35;;;;;;;;;;10031092;28;20081;-75
2023/12/13 13:16:50;;;;;;;65.03;42.03;;;;;;;;;;10030778;28;20037;-74
2023/12/13 13:21:42;;;;;;;66.70;46.75;;;;;;;;;;10030835;28;20046;-74
2023/12/13 13:26:34;;;;;;;68.63;45.47;;;;;;;;;;10031439;28;20049;-74
2023/12/13 13:31:27;;;;;;;70.63;45.08;;;;;;;;;;10030101;28;20074;-74
2023/12/13 13:36:20;;;;;;;71.00;43.95;;;;;;;;;;10030463;28;20042;-75
2023/12/13 13:41:12;;;;;;;68.88;43.72;;;;;;;;;;10029725;28;20050;-74
2023/12/13 13:46:04;;;;;;;59.72;41.58;;;;;;;;;;10028954;28;20144;-75
2023/12/13 13:50:56;;;;;;;66.65;42.03;;;;;;;;;;10030382;28;20481;-74
2023/12/13 13:55:48;;;;;;;59.75;41.97;;;;;;;;;;10030212;28;20065;-74
2023/12/13 14:00:40;;;;;;;52.15;38.55;;;;;;;;;;10029348;28;20053;-74
2023/12/13 14:05:35;;;;;;;50.72;39.08;;;;;;;;;;10028624;28;20049;-74
2023/12/13 14:10:27;;;;;;;60.88;44.60;;;;;;;;;;10029402;28;20049;-75
2023/12/13 14:15:19;;;;;;;66.15;43.03;;;;;;;;;;10029423;28;20058;-74
2023/12/13 14:20:11;;;;;;;77.35;46.75;;;;;;;;;;10029027;28;20104;-75
2023/12/13 14:25:05;;;;;;;78.00;49.03;;;;;;;;;;10028533;28;20046;-74
2023/12/13 14:29:56;;;;;;;74.93;48.80;;;;;;;;;;10028188;28;20405;-75
2023/12/13 14:34:48;;;;;;;73.47;49.38;;;;;;;;;;10026932;28;20049;-74
2023/12/13 14:39:40;;;;;;;73.65;51.20;;;;;;;;;;10027646;28;20054;-75
2023/12/13 14:44:33;;;;;;;74.65;46.05;;;;;;;;;;10026551;28;20046;-75
2023/12/13 14:49:25;;;;;;;72.28;50.35;;;;;;;;;;10027793;28;20050;-75
2023/12/13 14:54:17;;;;;;;67.05;46.28;;;;;;;;;;10028058;28;20057;-74
2023/12/13 14:59:09;;;;;;;66.75;46.95;;;;;;;;;;10028003;28;20464;-74
2023/12/13 15:04:02;;;;;;;65.30;49.55;;;;;;;;;;10026959;28;20096;-74
2023/12/13 15:08:54;;;;;;;73.95;50.22;;;;;;;;;;10027603;28;20455;-75
2023/12/13 15:13:46;;;;;;;63.45;43.33;;;;;;;;;;10026821;28;20485;-75
2023/12/13 15:18:38;;;;;;;61.58;42.90;;;;;;;;;;10027096;28;20112;-74
2023/12/13 15:23:30;;;;;;;59.95;40.95;;;;;;;;;;10025590;28;20046;-75
2023/12/13 15:28:22;;;;;;;60.05;41.88;;;;;;;;;;10026712;28;20100;-74
2023/12/13 15:33:13;;;;;;;51.03;36.58;;;;;;;;;;10026476;28;20056;-75
2023/12/13 15:38:06;;;;;;;48.05;34.53;;;;;;;;;;10025799;28;20057;-75
2023/12/13 15:42:58;;;;;;;49.72;35.45;;;;;;;;;;10025190;28;20131;-75
2023/12/13 15:47:51;;;;;;;51.63;35.83;;;;;;;;;;10026057;28;20132;-75
2023/12/13 15:52:44;;;;;;;54.38;38.05;;;;;;;;;;10025652;28;20041;-75
2023/12/13 15:57:36;;;;;;;54.70;38.88;;;;;;;;;;10025020;28;20049;-75
2023/12/13 16:02:27;;;;;;;54.47;38.88;;;;;;;;;;10025296;28;20065;-74
2023/12/13 16:07:20;;;;;;;48.03;39.25;;;;;;;;;;10025309;28;20057;-75
2023/12/13 16:12:12;;;;;;;55.88;42.40;;;;;;;;;;10024891;28;20133;-74
2023/12/13 16:17:04;;;;;;;59.20;42.35;;;;;;;;;;10025309;28;20439;-74
2023/12/13 16:21:56;;;;;;;54.83;39.00;;;;;;;;;;10025336;28;20132;-74
2023/12/13 16:26:51;;;;;;;54.35;37.92;;;;;;;;;;10024550;28;20136;-74
2023/12/13 16:31:43;;;;;;;51.38;34.78;;;;;;;;;;10024527;28;20042;-75
2023/12/13 16:36:36;;;;;;;50.67;35.38;;;;;;;;;;10024072;28;20173;-75
2023/12/13 16:41:28;;;;;;;48.65;33.50;;;;;;;;;;10024698;28;20064;-74
2023/12/13 16:46:22;;;;;;;49.85;36.50;;;;;;;;;;10023317;28;20041;-75
2023/12/13 16:51:18;;;;;;;52.30;36.65;;;;;;;;;;10024620;28;20807;-74
2023/12/13 16:56:10;;;;;;;54.08;38.25;;;;;;;;;;10024475;28;20137;-75
2023/12/13 17:01:03;;;;;;;54.10;35.75;;;;;;;;;;10024124;28;20523;-75
2023/12/13 17:05:55;;;;;;;52.58;36.10;;;;;;;;;;10025051;28;20057;-75
2023/12/13 17:10:47;;;;;;;54.25;37.33;;;;;;;;;;10031398;28;20072;-75
2023/12/13 17:15:40;;;;;;;43.33;33.47;;;;;;;;;;10031736;28;20092;-75
2023/12/13 17:20:32;;;;;;;54.65;35.42;;;;;;;;;;10030212;28;20062;-75
2023/12/13 17:25:24;;;;;;;44.97;31.02;;;;;;;;;;10031466;28;20372;-75
2023/12/13 17:30:15;;;;;;;45.95;36.28;;;;;;;;;;10030387;28;20418;-75
2023/12/13 17:35:08;;;;;;;43.85;31.20;;;;;;;;;;10030326;28;20073;-75
2023/12/13 17:40:00;;;;;;;46.33;31.88;;;;;;;;;;10030728;28;20145;-75
2023/12/13 17:44:51;;;;;;;51.33;35.30;;;;;;;;;;10030834;28;20069;-75
2023/12/13 17:49:43;;;;;;;45.85;31.70;;;;;;;;;;10030812;28;20045;-75
2023/12/13 17:54:36;;;;;;;34.88;27.00;;;;;;;;;;10030076;28;20058;-74
2023/12/13 17:59:27;;;;;;;40.30;29.73;;;;;;;;;;10030221;28;20061;-75
2023/12/13 18:04:19;;;;;;;38.53;29.73;;;;;;;;;;10029720;28;20100;-75
2023/12/13 18:09:11;;;;;;;48.30;36.97;;;;;;;;;;10029878;28;20038;-75
2023/12/13 18:14:03;;;;;;;49.42;33.45;;;;;;;;;;10030010;28;20042;-75
2023/12/13 18:18:56;;;;;;;36.15;28.17;;;;;;;;;;10029611;28;20050;-75
2023/12/13 18:23:50;;;;;;;34.47;25.63;;;;;;;;;;10029117;28;20053;-74
2023/12/13 18:28:42;;;;;;;32.17;24.92;;;;;;;;;;10029597;28;20120;-74
2023/12/13 18:33:34;;;;;;;32.17;25.33;;;;;;;;;;10028916;28;20050;-77
2023/12/13 18:38:29;;;;;;;32.92;26.40;;;;;;;;;;10029316;28;20132;-74
2023/12/13 18:43:21;;;;;;;32.58;26.38;;;;;;;;;;10027919;28;20104;-75
2023/12/13 18:48:13;;;;;;;53.50;34.95;;;;;;;;;;10028278;28;20129;-77
2023/12/13 18:53:06;;;;;;;32.58;25.55;;;;;;;;;;10027968;28;20041;-77
2023/12/13 18:57:58;;;;;;;33.17;25.33;;;;;;;;;;10028046;28;20045;-78
2023/12/13 19:02:50;;;;;;;33.72;23.35;;;;;;;;;;10027770;28;20104;-77
2023/12/13 19:07:42;;;;;;;30.67;22.50;;;;;;;;;;10027740;28;20052;-77
2023/12/13 19:12:34;;;;;;;27.67;21.60;;;;;;;;;;10027938;28;20046;-77
2023/12/13 19:17:26;;;;;;;27.05;20.63;;;;;;;;;;10027037;28;20377;-76
2023/12/13 19:22:18;;;;;;;41.42;30.38;;;;;;;;;;10027048;28;20133;-77
2023/12/13 19:27:10;;;;;;;33.20;27.33;;;;;;;;;;10027213;28;20041;-77
2023/12/13 19:32:02;;;;;;;28.13;21.95;;;;;;;;;;10026529;28;20054;-77
2023/12/13 19:36:54;;;;;;;32.88;26.02;;;;;;;;;;10026316;28;20045;-76
2023/12/13 19:41:46;;;;;;;30.73;24.42;;;;;;;;;;10025280;28;20473;-76
2023/12/13 19:46:38;;;;;;;30.83;25.33;;;;;;;;;;10025756;28;20090;-75
2023/12/13 19:51:30;;;;;;;29.83;23.88;;;;;;;;;;10026296;28;20435;-76
2023/12/13 19:56:21;;;;;;;29.60;22.65;;;;;;;;;;10025875;28;20132;-77
2023/12/13 20:01:13;;;;;;;35.38;28.20;;;;;;;;;;10026284;28;20042;-77
2023/12/13 20:06:05;;;;;;;35.38;26.67;;;;;;;;;;10026253;28;20050;-77
2023/12/13 20:10:57;;;;;;;29.15;24.02;;;;;;;;;;10025496;28;20535;-77
2023/12/13 20:15:50;;;;;;;29.25;23.05;;;;;;;;;;10025317;28;20116;-77
2023/12/13 20:20:42;;;;;;;34.08;25.35;;;;;;;;;;10024830;28;20365;-77
2023/12/13 20:25:34;;;;;;;34.15;26.10;;;;;;;;;;10025389;28;20050;-77
2023/12/13 20:30:25;;;;;;;34.95;26.15;;;;;;;;;;10025573;28;20042;-77
2023/12/13 20:35:17;;;;;;;31.85;23.63;;;;;;;;;;10025634;28;20397;-76
2023/12/13 20:40:10;;;;;;;31.92;25.45;;;;;;;;;;10025031;28;20065;-77
2023/12/13 20:45:02;;;;;;;35.95;27.13;;;;;;;;;;10032362;28;20432;-76
2023/12/13 20:49:56;;;;;;;37.45;27.15;;;;;;;;;;10032641;28;20513;-77
2023/12/13 20:54:48;;;;;;;32.22;23.98;;;;;;;;;;10031904;28;20050;-77
2023/12/13 20:59:41;;;;;;;36.38;26.42;;;;;;;;;;10032798;28;20453;-77
2023/12/13 21:04:33;;;;;;;45.45;30.77;;;;;;;;;;10032041;28;20050;-76
2023/12/13 21:09:25;;;;;;;47.08;32.58;;;;;;;;;;10031738;28;20100;-77
2023/12/13 21:14:17;;;;;;;39.30;29.60;;;;;;;;;;10031779;28;20488;-77
2023/12/13 21:19:09;;;;;;;33.58;25.35;;;;;;;;;;10032325;28;20133;-77
2023/12/13 21:24:01;;;;;;;41.55;33.35;;;;;;;;;;10031650;28;20042;-77
2023/12/13 21:29:07;;;;;;;39.42;28.33;;;;;;;;;;10031158;28;20046;-77
2023/12/13 21:33:59;;;;;;;38.97;26.60;;;;;;;;;;10029677;28;20074;-77
2023/12/13 21:38:51;;;;;;;44.03;28.00;;;;;;;;;;10030641;28;20100;-77
2023/12/13 21:43:43;;;;;;;30.95;21.35;;;;;;;;;;10030581;28;20046;-77
2023/12/13 21:48:35;;;;;;;34.67;24.85;;;;;;;;;;10030211;28;20088;-77
2023/12/13 21:53:27;;;;;;;35.63;24.65;;;;;;;;;;10029503;28;20069;-77
2023/12/13 21:58:19;;;;;;;33.33;25.15;;;;;;;;;;10029614;28;20054;-77
2023/12/13 22:03:11;;;;;;;32.53;22.45;;;;;;;;;;10030473;28;20093;-77
2023/12/13 22:08:03;;;;;;;35.95;26.58;;;;;;;;;;10030022;28;20053;-77
2023/12/13 22:12:55;;;;;;;31.52;20.70;;;;;;;;;;10029514;28;20053;-77
2023/12/13 22:17:53;;;;;;;31.30;21.23;;;;;;;;;;10029508;28;20100;-76
2023/12/13 22:22:45;;;;;;;24.27;17.60;;;;;;;;;;10029558;28;20077;-77
2023/12/13 22:27:38;;;;;;;24.20;18.45;;;;;;;;;;10029099;28;20042;-77
2023/12/13 22:32:30;;;;;;;28.38;18.40;;;;;;;;;;10028958;28;20084;-77
2023/12/13 22:37:22;;;;;;;29.63;19.33;;;;;;;;;;10028869;28;20045;-77
2023/12/13 22:42:13;;;;;;;23.95;17.52;;;;;;;;;;10028445;28;20050;-77
2023/12/13 22:47:05;;;;;;;31.40;20.63;;;;;;;;;;10028957;28;20057;-78
2023/12/13 22:51:57;;;;;;;27.40;18.60;;;;;;;;;;10028711;28;20140;-78
2023/12/13 22:57:09;;;;;;;24.35;18.20;;;;;;;;;;10028229;28;20446;-78
2023/12/13 23:02:01;;;;;;;24.73;19.65;;;;;;;;;;10028526;28;20133;-77
2023/12/13 23:06:54;;;;;;;22.48;17.25;;;;;;;;;;10026517;28;20053;-76
2023/12/13 23:11:46;;;;;;;21.65;15.80;;;;;;;;;;10027251;28;20137;-77
2023/12/13 23:16:38;;;;;;;24.20;15.80;;;;;;;;;;10027938;28;20412;-77
2023/12/13 23:21:30;;;;;;;21.27;15.32;;;;;;;;;;10026984;28;20166;-77
2023/12/13 23:26:22;;;;;;;25.08;16.92;;;;;;;;;;10027011;28;20046;-77
2023/12/13 23:31:14;;;;;;;18.40;14.05;;;;;;;;;;10027302;28;20045;-77
2023/12/13 23:36:09;;;;;;;21.08;15.23;;;;;;;;;;10026526;28;20116;-77
2023/12/13 23:41:01;;;;;;;21.83;16.08;;;;;;;;;;10025582;28;20057;-75
2023/12/13 23:45:52;;;;;;;16.83;13.07;;;;;;;;;;10026210;28;20124;-77
2023/12/13 23:50:44;;;;;;;16.83;12.30;;;;;;;;;;10025622;28;20429;-77
2023/12/13 23:55:38;;;;;;;22.40;16.90;;;;;;;;;;10026753;28;20057;-77
